Time;durP1;ratioP1;P1;durP2;ratioP2;P2;SDS_P1;SDS_P2;PMS_P1;PMS_P2;Temp;Humidity;BMP_temperature;BMP_pressure;BME280_temperature;BME280_humidity;BME280_pressure;Samples;Min_cycle;Max_cycle;Signal;HPM_P1;HPM_P2
2023/02/05 00:01:31;;;;;;;1.90;1.80;;;2.80;99.90;;;;;;5119440;27;20217;-69
2023/02/05 00:03:58;;;;;;;1.63;1.52;;;2.80;99.90;;;;;;5115844;27;20192;-68
2023/02/05 00:06:25;;;;;;;2.92;1.55;;;2.90;99.90;;;;;;5109524;27;20225;-68
2023/02/05 00:08:52;;;;;;;2.53;2.42;;;2.90;99.90;;;;;;5109732;28;20281;-68
2023/02/05 00:11:20;;;;;;;1.80;1.50;;;2.90;99.90;;;;;;5109954;28;20711;-68
2023/02/05 00:13:47;;;;;;;1.05;0.98;;;2.90;99.90;;;;;;5109530;28;20201;-68
2023/02/05 00:16:16;;;;;;;1.70;1.67;;;2.90;99.90;;;;;;5127215;27;20294;-68
2023/02/05 00:18:43;;;;;;;1.48;1.38;;;2.90;99.90;;;;;;5114003;27;20206;-68
2023/02/05 00:21:10;;;;;;;4.60;1.38;;;3.00;99.90;;;;;;5127225;27;20221;-68
2023/02/05 00:23:37;;;;;;;2.05;1.52;;;2.90;99.90;;;;;;5130101;27;20204;-68
2023/02/05 00:26:05;;;;;;;1.83;1.73;;;2.90;99.90;;;;;;5130162;27;20530;-68
2023/02/05 00:28:34;;;;;;;1.65;1.55;;;2.90;99.90;;;;;;5115699;27;20194;-68
2023/02/05 00:31:06;;;;;;;2.50;2.30;;;2.90;99.90;;;;;;5110549;27;20217;-68
2023/02/05 00:33:33;;;;;;;1.73;1.60;;;2.90;99.90;;;;;;5108406;28;20216;-68
2023/02/05 00:35:59;;;;;;;7.22;2.35;;;2.90;99.90;;;;;;5127123;27;20217;-68
2023/02/05 00:38:26;;;;;;;1.48;1.35;;;2.90;99.90;;;;;;5126787;27;20197;-68
2023/02/05 00:40:53;;;;;;;4.97;1.98;;;2.90;99.90;;;;;;5112258;27;20217;-69
2023/02/05 00:43:20;;;;;;;1.40;1.30;;;2.90;99.90;;;;;;5125229;27;20194;-68
2023/02/05 00:45:48;;;;;;;1.05;0.95;;;2.90;99.90;;;;;;5108807;28;20241;-68
2023/02/05 00:48:15;;;;;;;12.05;1.75;;;3.00;99.90;;;;;;5114657;27;20196;-68
2023/02/05 00:50:41;;;;;;;1.13;0.85;;;3.00;99.90;;;;;;5122301;27;20317;-68
2023/02/05 00:53:08;;;;;;;1.85;1.75;;;3.00;99.90;;;;;;5109184;28;20201;-68
2023/02/05 00:55:35;;;;;;;2.92;2.75;;;3.00;99.90;;;;;;5108987;27;20646;-68
2023/02/05 00:58:02;;;;;;;1.35;1.27;;;2.90;99.90;;;;;;5116996;27;20206;-69
2023/02/05 01:00:29;;;;;;;2.03;1.58;;;2.80;99.90;;;;;;5108280;27;20320;-68
2023/02/05 01:02:57;;;;;;;1.40;1.30;;;2.90;99.90;;;;;;5120410;27;20199;-67
2023/02/05 01:05:24;;;;;;;1.35;1.25;;;2.80;99.90;;;;;;5129176;27;20236;-68
2023/02/05 01:07:50;;;;;;;0.60;0.60;;;2.90;99.90;;;;;;5117058;27;20194;-68
2023/02/05 01:10:17;;;;;;;1.52;1.33;;;2.80;99.90;;;;;;5125223;27;20209;-68
2023/02/05 01:12:44;;;;;;;1.50;1.40;;;2.90;99.90;;;;;;5121243;27;20197;-68
2023/02/05 01:15:13;;;;;;;1.92;1.83;;;2.80;99.90;;;;;;5128474;27;20205;-68
2023/02/05 01:17:40;;;;;;;1.55;1.45;;;2.90;99.90;;;;;;5127636;27;20250;-68
2023/02/05 01:20:11;;;;;;;1.98;1.10;;;2.90;99.90;;;;;;5128320;27;20564;-68
2023/02/05 01:22:38;;;;;;;1.40;1.05;;;2.90;99.90;;;;;;5128668;27;20255;-68
2023/02/05 01:25:05;;;;;;;1.98;1.85;;;2.90;99.90;;;;;;5128408;27;20221;-69
2023/02/05 01:27:32;;;;;;;1.85;1.20;;;3.00;99.90;;;;;;5128432;27;20193;-70
2023/02/05 01:29:59;;;;;;;3.38;1.95;;;2.90;99.90;;;;;;5127983;27;20216;-69
2023/02/05 01:32:27;;;;;;;1.58;1.05;;;3.00;99.90;;;;;;5127772;27;20228;-68
2023/02/05 01:34:54;;;;;;;1.70;1.55;;;2.90;99.90;;;;;;5128738;27;20202;-69
2023/02/05 01:37:22;;;;;;;2.90;2.70;;;2.90;99.90;;;;;;5128200;27;20221;-68
2023/02/05 01:39:49;;;;;;;1.33;1.33;;;2.90;99.90;;;;;;5113755;27;20209;-68
2023/02/05 01:42:18;;;;;;;1.58;1.48;;;2.90;99.90;;;;;;5119362;27;20605;-68
2023/02/05 01:45:19;;;;;;;2.80;2.05;;;2.90;99.90;;;;;;5124917;27;20324;-68
2023/02/05 01:47:46;;;;;;;2.00;1.90;;;2.90;99.90;;;;;;5120007;27;20196;-68
2023/02/05 01:50:14;;;;;;;1.15;1.00;;;2.90;99.90;;;;;;5127272;27;20202;-68
2023/02/05 01:52:42;;;;;;;0.98;0.98;;;2.80;99.90;;;;;;5127336;27;20197;-67
2023/02/05 01:55:09;;;;;;;0.55;0.55;;;2.90;99.90;;;;;;5128082;27;20277;-68
2023/02/05 01:57:37;;;;;;;2.25;1.77;;;2.90;99.90;;;;;;5126313;27;20193;-68
2023/02/05 02:00:06;;;;;;;1.50;1.40;;;2.90;99.90;;;;;;5107176;28;20675;-70
2023/02/05 02:02:35;;;;;;;2.47;1.00;;;2.90;99.90;;;;;;5108083;28;20228;-68
2023/02/05 02:05:08;;;;;;;8.13;1.77;;;2.90;99.90;;;;;;5127103;28;20211;-69
2023/02/05 02:07:35;;;;;;;1.60;1.50;;;2.80;99.90;;;;;;5126384;28;20208;-68
2023/02/05 02:10:04;;;;;;;0.57;0.57;;;2.90;99.90;;;;;;5107497;28;20198;-68
2023/02/05 02:12:34;;;;;;;0.85;0.82;;;2.90;99.90;;;;;;5112739;28;20625;-68
2023/02/05 02:15:08;;;;;;;1.98;1.70;;;2.90;99.90;;;;;;5107779;28;20270;-68
2023/02/05 02:17:39;;;;;;;0.95;0.95;;;2.90;99.90;;;;;;5107319;28;20615;-69
2023/02/05 02:20:08;;;;;;;2.20;2.10;;;2.90;99.90;;;;;;5123799;28;20193;-69
2023/02/05 02:22:57;;;;;;;0.80;0.80;;;2.80;99.90;;;;;;5106453;28;20196;-66
2023/02/05 02:25:48;;;;;;;1.52;1.42;;;2.80;99.90;;;;;;5111909;28;20236;-69
2023/02/05 02:28:24;;;;;;;1.70;1.60;;;2.80;99.90;;;;;;5127073;28;20194;-68
2023/02/05 02:30:59;;;;;;;3.78;2.47;;;2.80;99.90;;;;;;5126594;28;20223;-69
2023/02/05 02:33:31;;;;;;;0.88;0.88;;;2.80;99.90;;;;;;5128343;28;20453;-68
2023/02/05 02:36:03;;;;;;;2.13;1.95;;;2.80;99.90;;;;;;5127538;28;20227;-69
2023/02/05 02:38:33;;;;;;;3.85;3.28;;;2.70;99.90;;;;;;5117302;28;20336;-68
2023/02/05 02:41:06;;;;;;;1.70;1.60;;;2.70;99.90;;;;;;5126296;28;20217;-68
2023/02/05 02:43:45;;;;;;;4.00;1.02;;;2.70;99.90;;;;;;5128329;28;20213;-68
2023/02/05 02:46:20;;;;;;;1.55;1.48;;;2.70;99.90;;;;;;5127499;28;20293;-68
2023/02/05 02:48:50;;;;;;;1.85;1.35;;;2.70;99.90;;;;;;5127328;28;20312;-69
2023/02/05 02:51:20;;;;;;;1.65;1.55;;;2.70;99.90;;;;;;5127689;28;20317;-68
2023/02/05 02:53:50;;;;;;;1.55;1.48;;;2.70;99.90;;;;;;5128041;28;20194;-69
2023/02/05 02:56:19;;;;;;;1.15;0.93;;;2.70;99.90;;;;;;5127472;28;20295;-69
2023/02/05 02:58:53;;;;;;;1.55;1.45;;;2.70;99.90;;;;;;5123192;28;20201;-68
2023/02/05 03:01:23;;;;;;;2.17;1.05;;;2.60;99.90;;;;;;5127036;28;20228;-68
2023/02/05 03:03:57;;;;;;;4.00;2.20;;;2.70;99.90;;;;;;5128050;27;20253;-68
2023/02/05 03:06:26;;;;;;;1.73;1.38;;;2.70;99.90;;;;;;5131177;27;20236;-68
2023/02/05 03:08:57;;;;;;;1.75;1.65;;;2.70;99.90;;;;;;5131296;27;20232;-68
2023/02/05 03:11:25;;;;;;;2.45;1.42;;;2.70;99.90;;;;;;5131053;27;20232;-68
2023/02/05 03:13:55;;;;;;;1.52;1.42;;;2.30;99.90;;;;;;5131175;27;20306;-69
2023/02/05 03:16:23;;;;;;;1.00;1.00;;;2.70;99.90;;;;;;5130899;27;20253;-68
2023/02/05 03:18:53;;;;;;;6.75;1.95;;;2.70;99.90;;;;;;5130972;27;20559;-68
2023/02/05 03:21:25;;;;;;;2.38;1.55;;;2.70;99.90;;;;;;5131297;27;20225;-67
2023/02/05 03:23:53;;;;;;;1.50;1.40;;;2.70;99.90;;;;;;5131224;27;20694;-68
2023/02/05 03:26:27;;;;;;;2.70;2.45;;;2.60;99.90;;;;;;5130234;27;20237;-69
2023/02/05 03:28:56;;;;;;;1.33;1.23;;;2.60;99.90;;;;;;5130024;27;20229;-68
2023/02/05 03:31:31;;;;;;;0.93;0.82;;;2.60;99.90;;;;;;5129576;27;20233;-68
2023/02/05 03:34:12;;;;;;;1.67;1.60;;;2.50;99.90;;;;;;5131016;27;20311;-69
2023/02/05 03:36:59;;;;;;;5.65;2.08;;;2.50;99.90;;;;;;5130828;27;20645;-68
2023/02/05 03:39:35;;;;;;;3.40;1.92;;;2.50;99.90;;;;;;5116234;27;20229;-68
2023/02/05 03:42:12;;;;;;;2.47;2.22;;;2.50;99.90;;;;;;5124571;27;20229;-68
2023/02/05 03:45:02;;;;;;;3.53;2.42;;;2.60;99.90;;;;;;5131135;27;20209;-68
2023/02/05 03:47:38;;;;;;;0.70;0.70;;;2.70;99.90;;;;;;5125959;27;20200;-68
2023/02/05 03:50:18;;;;;;;0.82;0.80;;;2.70;99.90;;;;;;5130153;27;20229;-68
2023/02/05 03:52:51;;;;;;;1.40;1.30;;;2.80;99.90;;;;;;5131075;27;20219;-68
2023/02/05 03:55:22;;;;;;;2.20;1.98;;;2.80;99.90;;;;;;5130366;27;20205;-68
2023/02/05 03:57:56;;;;;;;0.80;0.80;;;2.80;99.90;;;;;;5119410;27;20234;-68
2023/02/05 04:00:27;;;;;;;4.15;1.60;;;2.90;99.90;;;;;;5109806;27;20222;-68
2023/02/05 04:02:54;;;;;;;1.65;1.55;;;2.90;99.90;;;;;;5118793;27;20196;-68
2023/02/05 04:05:22;;;;;;;1.05;1.05;;;2.80;99.90;;;;;;5130234;27;20308;-68
2023/02/05 04:07:49;;;;;;;3.45;2.38;;;2.80;99.90;;;;;;5130555;27;20622;-68
2023/02/05 04:10:16;;;;;;;1.38;1.30;;;2.80;99.90;;;;;;5129416;27;20241;-68
2023/02/05 04:12:43;;;;;;;1.20;1.10;;;2.90;99.90;;;;;;5113090;27;20592;-68
2023/02/05 04:15:10;;;;;;;2.95;1.10;;;2.70;99.90;;;;;;5124175;27;20281;-68
2023/02/05 04:17:38;;;;;;;1.27;1.23;;;2.70;99.90;;;;;;5118028;27;20568;-68
2023/02/05 04:20:07;;;;;;;1.85;1.63;;;2.70;99.90;;;;;;5129338;27;20288;-67
2023/02/05 04:22:34;;;;;;;0.80;0.80;;;2.70;99.90;;;;;;5129276;27;20201;-69
2023/02/05 04:25:00;;;;;;;2.28;1.67;;;2.50;99.90;;;;;;5122171;27;20661;-68
2023/02/05 04:27:27;;;;;;;1.50;1.15;;;2.50;99.90;;;;;;5109575;27;20236;-68
2023/02/05 04:29:54;;;;;;;0.77;0.70;;;2.50;99.90;;;;;;5108935;27;20694;-68
2023/02/05 04:32:21;;;;;;;1.67;0.80;;;3.30;99.90;;;;;;5108028;27;20226;-68
2023/02/05 04:34:49;;;;;;;1.00;1.00;;;2.40;99.90;;;;;;5109560;28;20209;-69
2023/02/05 04:37:16;;;;;;;1.33;1.25;;;2.30;99.90;;;;;;5113066;27;20221;-68
2023/02/05 04:39:42;;;;;;;1.40;1.30;;;2.30;99.90;;;;;;5127894;27;20205;-68
2023/02/05 04:42:09;;;;;;;3.60;1.20;;;2.30;99.90;;;;;;5129494;27;20520;-68
2023/02/05 04:44:36;;;;;;;6.63;1.67;;;2.10;99.90;;;;;;5129730;27;20258;-68
2023/02/05 04:47:02;;;;;;;2.30;2.15;;;2.10;99.90;;;;;;5129473;27;20236;-68
2023/02/05 04:49:32;;;;;;;1.77;1.67;;;1.90;99.90;;;;;;5128604;27;20649;-68
2023/02/05 04:52:00;;;;;;;1.40;1.33;;;2.00;99.90;;;;;;5128636;27;20219;-68
2023/02/05 04:54:27;;;;;;;0.75;0.75;;;2.00;99.90;;;;;;5129327;27;20200;-68
2023/02/05 04:56:54;;;;;;;3.35;0.70;;;2.00;99.90;;;;;;5129678;27;20312;-68
2023/02/05 04:59:21;;;;;;;0.80;0.80;;;1.90;99.90;;;;;;5128775;27;20197;-68
2023/02/05 05:01:48;;;;;;;0.68;0.68;;;1.90;99.90;;;;;;5129342;27;20217;-68
2023/02/05 05:04:14;;;;;;;4.57;1.95;;;1.90;99.90;;;;;;5128874;27;20193;-70
2023/02/05 05:06:41;;;;;;;3.47;1.60;;;1.90;99.90;;;;;;5128889;27;20714;-68
2023/02/05 05:09:09;;;;;;;1.15;0.82;;;1.90;99.90;;;;;;5117682;27;20221;-68
2023/02/05 05:11:36;;;;;;;0.43;0.40;;;1.90;99.90;;;;;;5111532;27;21912;-68
2023/02/05 05:14:03;;;;;;;2.05;1.92;;;1.90;99.90;;;;;;5118745;27;20202;-68
2023/02/05 05:16:29;;;;;;;15.63;3.30;;;1.90;99.90;;;;;;5109295;27;20313;-67
2023/02/05 05:18:56;;;;;;;1.30;0.80;;;1.90;99.90;;;;;;5120108;27;20225;-69
2023/02/05 05:21:23;;;;;;;0.63;0.63;;;1.90;99.90;;;;;;5128450;27;20224;-68
2023/02/05 05:23:50;;;;;;;1.30;1.20;;;1.90;99.90;;;;;;5129505;27;20212;-68
2023/02/05 05:26:18;;;;;;;1.17;1.17;;;1.90;99.90;;;;;;5128650;27;20220;-68
2023/02/05 05:28:45;;;;;;;1.75;1.65;;;2.00;99.90;;;;;;5109769;27;20201;-68
2023/02/05 05:31:18;;;;;;;0.95;0.95;;;1.90;99.90;;;;;;5107732;28;20220;-68
2023/02/05 05:33:45;;;;;;;2.75;1.85;;;2.00;99.90;;;;;;5108588;27;20520;-68
2023/02/05 05:36:12;;;;;;;1.70;1.20;;;2.00;99.90;;;;;;5108560;28;20226;-68
2023/02/05 05:38:39;;;;;;;4.82;2.38;;;2.00;99.90;;;;;;5123919;27;20197;-68
2023/02/05 05:43:52;;;;;;;1.00;0.80;;;1.90;99.90;;;;;;5128440;27;20284;-68
2023/02/05 05:46:21;;;;;;;4.32;2.22;;;1.90;99.90;;;;;;5128702;27;20235;-68
2023/02/05 05:48:49;;;;;;;0.75;0.75;;;1.90;99.90;;;;;;5127080;27;20186;-69
2023/02/05 05:51:16;;;;;;;1.75;1.65;;;1.90;99.90;;;;;;5128665;27;20591;-68
2023/02/05 05:53:43;;;;;;;4.13;1.15;;;1.90;99.90;;;;;;5128791;27;20193;-68
2023/02/05 05:56:10;;;;;;;0.70;0.70;;;1.90;99.90;;;;;;5128479;27;20217;-68
2023/02/05 05:58:37;;;;;;;0.77;0.75;;;2.00;99.90;;;;;;5127242;27;20193;-68
2023/02/05 06:01:06;;;;;;;1.27;0.98;;;2.00;99.90;;;;;;5128728;28;20696;-68
2023/02/05 06:03:33;;;;;;;2.25;2.15;;;2.10;99.90;;;;;;5128388;28;20201;-68
2023/02/05 06:06:01;;;;;;;0.85;0.82;;;2.10;99.90;;;;;;5128281;28;20240;-68
2023/02/05 06:08:28;;;;;;;1.13;1.02;;;2.10;99.90;;;;;;5127901;28;20205;-67
2023/02/05 06:10:55;;;;;;;1.92;1.70;;;2.10;99.90;;;;;;5127622;28;20699;-68
2023/02/05 06:13:21;;;;;;;1.77;1.48;;;2.20;99.90;;;;;;5128453;28;20242;-68
2023/02/05 06:15:48;;;;;;;1.60;1.02;;;2.20;99.90;;;;;;5127850;28;20703;-68
2023/02/05 06:18:17;;;;;;;0.60;0.50;;;2.20;99.90;;;;;;5127778;28;20242;-68
2023/02/05 06:20:44;;;;;;;1.08;0.98;;;2.20;99.90;;;;;;5128053;28;20236;-68
2023/02/05 06:23:11;;;;;;;3.25;2.42;;;2.20;99.90;;;;;;5128442;28;20722;-68
2023/02/05 06:25:38;;;;;;;4.78;1.60;;;2.10;99.90;;;;;;5127705;28;20225;-68
2023/02/05 06:28:05;;;;;;;1.20;1.10;;;2.10;99.90;;;;;;5127734;28;20288;-68
2023/02/05 06:30:32;;;;;;;1.42;1.33;;;2.10;99.90;;;;;;5127546;28;20699;-68
2023/02/05 06:32:58;;;;;;;2.85;1.45;;;2.10;99.90;;;;;;5127531;28;20209;-68
2023/02/05 06:35:26;;;;;;;1.55;1.45;;;2.10;99.90;;;;;;5118055;28;20600;-68
2023/02/05 06:37:53;;;;;;;0.82;0.82;;;2.10;99.90;;;;;;5119281;28;20201;-68
2023/02/05 06:40:21;;;;;;;1.10;1.10;;;2.10;99.90;;;;;;5115943;27;20197;-68
2023/02/05 06:42:48;;;;;;;1.00;0.98;;;2.10;99.90;;;;;;5124083;27;20211;-67
2023/02/05 06:45:15;;;;;;;1.17;1.17;;;2.10;99.90;;;;;;5119972;27;20182;-68
2023/02/05 06:47:41;;;;;;;1.48;0.80;;;2.10;99.90;;;;;;5116338;27;20225;-68
2023/02/05 06:50:09;;;;;;;3.30;3.00;;;2.10;99.90;;;;;;5131225;27;20209;-68
2023/02/05 06:52:37;;;;;;;1.63;1.08;;;2.20;99.90;;;;;;5116374;27;20194;-69
2023/02/05 06:55:04;;;;;;;0.80;0.80;;;2.20;99.90;;;;;;5129494;27;20203;-69
2023/02/05 06:57:32;;;;;;;1.40;1.30;;;2.30;99.90;;;;;;5131886;27;20193;-68
2023/02/05 06:59:59;;;;;;;0.73;0.73;;;2.30;99.90;;;;;;5132073;27;20674;-68
2023/02/05 07:02:25;;;;;;;0.75;0.73;;;2.30;99.90;;;;;;5118590;27;20228;-68
2023/02/05 07:04:52;;;;;;;3.50;1.27;;;2.30;99.90;;;;;;5122319;27;20628;-67
2023/02/05 07:07:19;;;;;;;7.15;2.50;;;2.30;99.90;;;;;;5130760;27;20244;-68
2023/02/05 07:09:47;;;;;;;1.10;1.08;;;2.40;99.90;;;;;;5130557;27;20201;-68
2023/02/05 07:12:14;;;;;;;2.70;2.50;;;2.30;99.90;;;;;;5131390;27;20218;-68
2023/02/05 07:14:42;;;;;;;4.95;1.85;;;2.40;99.90;;;;;;5131303;27;20582;-68
2023/02/05 07:17:09;;;;;;;0.95;0.95;;;2.40;99.90;;;;;;5115669;27;20236;-68
2023/02/05 07:19:36;;;;;;;1.45;1.45;;;2.40;99.90;;;;;;5128180;27;20208;-69
2023/02/05 07:22:03;;;;;;;2.80;2.03;;;2.40;99.90;;;;;;5110433;27;20688;-68
2023/02/05 07:24:30;;;;;;;4.30;1.85;;;2.40;99.90;;;;;;5110748;28;20768;-67
2023/02/05 07:26:58;;;;;;;0.90;0.88;;;2.30;99.90;;;;;;5120024;27;20231;-68
2023/02/05 07:29:24;;;;;;;3.05;1.73;;;2.30;99.90;;;;;;5130466;27;20571;-68
2023/02/05 07:31:52;;;;;;;3.42;3.00;;;2.40;99.90;;;;;;5123484;27;20217;-68
2023/02/05 07:34:19;;;;;;;1.60;1.48;;;2.20;99.90;;;;;;5110261;28;20212;-68
2023/02/05 07:36:49;;;;;;;2.75;2.55;;;2.30;99.90;;;;;;5110650;27;20585;-68
2023/02/05 07:39:15;;;;;;;2.47;2.28;;;2.40;99.90;;;;;;5129860;27;20190;-67
2023/02/05 07:41:42;;;;;;;2.45;2.08;;;2.40;99.90;;;;;;5127020;27;20270;-68
2023/02/05 07:44:10;;;;;;;1.85;1.75;;;2.40;99.90;;;;;;5110555;28;20198;-68
2023/02/05 07:46:37;;;;;;;1.75;1.42;;;2.50;99.90;;;;;;5123542;27;20236;-68
2023/02/05 07:49:04;;;;;;;1.58;1.48;;;2.70;99.90;;;;;;5129751;27;20211;-68
2023/02/05 07:51:31;;;;;;;1.38;1.27;;;2.60;99.90;;;;;;5124098;27;20226;-68
2023/02/05 07:53:58;;;;;;;1.45;0.80;;;2.60;99.90;;;;;;5110413;28;20371;-68
2023/02/05 07:56:25;;;;;;;2.45;2.10;;;2.60;99.90;;;;;;5110422;27;20229;-68
2023/02/05 07:58:52;;;;;;;1.77;1.63;;;2.60;99.90;;;;;;5129636;27;20254;-68
2023/02/05 08:01:20;;;;;;;3.10;2.13;;;2.70;99.90;;;;;;5129566;27;20304;-69
2023/02/05 08:03:47;;;;;;;1.90;1.80;;;2.70;99.90;;;;;;5130263;27;20202;-68
2023/02/05 08:06:15;;;;;;;2.40;2.20;;;2.70;99.90;;;;;;5130257;27;20221;-67
2023/02/05 08:08:42;;;;;;;1.83;1.73;;;2.80;99.90;;;;;;5129425;27;20193;-68
2023/02/05 08:11:12;;;;;;;2.42;1.48;;;2.80;99.90;;;;;;5129978;27;20695;-68
2023/02/05 08:13:39;;;;;;;5.80;2.67;;;2.90;99.90;;;;;;5105165;28;20202;-68
2023/02/05 08:16:06;;;;;;;1.20;1.15;;;2.90;99.90;;;;;;5119711;27;20240;-68
2023/02/05 08:18:34;;;;;;;2.08;1.88;;;2.90;99.90;;;;;;5129542;27;20197;-67
2023/02/05 08:21:01;;;;;;;1.95;1.85;;;2.80;99.90;;;;;;5129712;27;20221;-68
2023/02/05 08:23:28;;;;;;;1.30;1.20;;;2.80;99.90;;;;;;5111833;27;20198;-67
2023/02/05 08:25:56;;;;;;;2.50;2.30;;;2.90;99.90;;;;;;5109605;27;20229;-68
2023/02/05 08:28:25;;;;;;;2.85;2.65;;;2.90;99.90;;;;;;5117221;27;20231;-68
2023/02/05 08:30:52;;;;;;;2.88;1.40;;;3.00;99.90;;;;;;5128094;27;20343;-69
2023/02/05 08:33:19;;;;;;;12.70;2.15;;;3.00;99.90;;;;;;5125977;27;20223;-68
2023/02/05 08:35:47;;;;;;;1.20;0.88;;;2.90;99.90;;;;;;5112619;27;20650;-68
2023/02/05 08:38:14;;;;;;;1.60;1.50;;;2.90;99.90;;;;;;5120887;27;20190;-68
2023/02/05 08:40:41;;;;;;;1.60;1.50;;;2.90;99.90;;;;;;5125531;27;20695;-68
2023/02/05 08:43:08;;;;;;;5.22;2.33;;;3.70;99.90;;;;;;5129267;27;20201;-67
2023/02/05 08:45:35;;;;;;;1.80;1.45;;;2.90;99.90;;;;;;5129671;27;20221;-68
2023/02/05 08:48:01;;;;;;;3.20;2.40;;;3.10;99.90;;;;;;5128662;27;20703;-68
2023/02/05 08:50:28;;;;;;;3.88;2.60;;;3.10;99.90;;;;;;5129238;27;20229;-68
2023/02/05 08:52:57;;;;;;;1.52;1.33;;;3.10;99.90;;;;;;5129369;27;20204;-67
2023/02/05 08:55:24;;;;;;;3.13;2.50;;;3.20;99.90;;;;;;5129449;27;20229;-68
2023/02/05 08:57:51;;;;;;;2.58;1.67;;;3.30;99.90;;;;;;5129055;27;20203;-68
2023/02/05 09:00:19;;;;;;;6.88;1.55;;;3.40;99.90;;;;;;5128757;27;20213;-67
2023/02/05 09:02:46;;;;;;;4.05;2.50;;;3.20;99.90;;;;;;5128788;27;20197;-68
2023/02/05 09:05:13;;;;;;;3.78;0.85;;;3.30;99.90;;;;;;5110061;27;20522;-67
2023/02/05 09:07:41;;;;;;;1.88;1.38;;;3.40;99.90;;;;;;5128840;27;20220;-68
2023/02/05 09:10:12;;;;;;;2.53;1.40;;;3.40;99.90;;;;;;5126987;27;20208;-68
2023/02/05 09:12:39;;;;;;;11.38;1.45;;;3.30;99.90;;;;;;5129392;27;20189;-67
2023/02/05 09:15:06;;;;;;;1.10;0.80;;;3.30;99.90;;;;;;5129300;27;20217;-66
2023/02/05 09:17:33;;;;;;;3.40;2.03;;;3.30;99.90;;;;;;5128297;27;20200;-68
2023/02/05 09:20:00;;;;;;;1.88;1.60;;;3.40;99.90;;;;;;5128393;27;20193;-68
2023/02/05 09:22:26;;;;;;;1.60;1.50;;;3.40;99.90;;;;;;5128443;27;20736;-68
2023/02/05 09:24:53;;;;;;;2.22;2.13;;;3.40;99.90;;;;;;5128812;27;20231;-68
2023/02/05 09:27:21;;;;;;;1.58;1.48;;;3.40;99.90;;;;;;5128972;27;20232;-67
2023/02/05 09:29:48;;;;;;;0.70;0.70;;;3.40;99.90;;;;;;5128266;27;20212;-68
2023/02/05 09:32:15;;;;;;;7.15;1.45;;;3.40;99.90;;;;;;5128715;27;20221;-68
2023/02/05 09:34:41;;;;;;;3.78;2.20;;;3.40;99.90;;;;;;5129326;27;20205;-68
2023/02/05 09:37:08;;;;;;;1.63;1.52;;;3.40;99.90;;;;;;5127815;27;20725;-68
2023/02/05 09:39:37;;;;;;;1.73;1.63;;;3.40;99.90;;;;;;5121532;27;20185;-68
2023/02/05 09:42:15;;;;;;;2.65;2.50;;;3.50;99.90;;;;;;5119797;27;20703;-68
2023/02/05 09:45:02;;;;;;;5.82;1.98;;;3.50;99.90;;;;;;5128941;27;20201;-68
2023/02/05 09:47:34;;;;;;;4.20;1.85;;;3.50;99.90;;;;;;5128546;27;20240;-68
2023/02/05 09:50:07;;;;;;;5.25;2.60;;;3.60;99.90;;;;;;5127084;27;20447;-68
2023/02/05 09:52:37;;;;;;;6.32;1.77;;;3.50;99.90;;;;;;5128632;27;20189;-68
2023/02/05 09:55:14;;;;;;;4.82;2.25;;;3.50;99.90;;;;;;5127956;27;20674;-67
2023/02/05 09:57:42;;;;;;;5.70;2.58;;;3.50;99.90;;;;;;5128335;27;20197;-68
2023/02/05 10:00:20;;;;;;;2.75;2.42;;;3.50;99.90;;;;;;5127378;28;20772;-68
2023/02/05 10:02:50;;;;;;;1.40;1.30;;;3.50;99.90;;;;;;5128142;28;20194;-68
2023/02/05 10:05:21;;;;;;;6.53;2.95;;;3.50;99.90;;;;;;5121772;28;20189;-68
2023/02/05 10:07:54;;;;;;;1.83;1.67;;;3.50;99.90;;;;;;5121003;28;20224;-68
2023/02/05 10:10:26;;;;;;;1.15;1.15;;;3.60;99.90;;;;;;5126527;28;20286;-68
2023/02/05 10:13:28;;;;;;;2.33;1.88;;;3.50;99.90;;;;;;5127271;28;20198;-68
2023/02/05 10:16:28;;;;;;;2.35;2.05;;;3.60;99.90;;;;;;5125874;27;20711;-68
2023/02/05 10:19:13;;;;;;;4.53;4.00;;;3.60;99.90;;;;;;5111579;27;20301;-67
2023/02/05 10:22:10;;;;;;;5.97;1.65;;;3.60;99.90;;;;;;5130179;27;20592;-68
2023/02/05 10:24:56;;;;;;;1.30;1.30;;;3.60;99.90;;;;;;5131859;27;20197;-69
2023/02/05 10:27:24;;;;;;;1.80;1.35;;;3.70;99.90;;;;;;5131182;27;20260;-68
2023/02/05 10:30:02;;;;;;;1.90;0.93;;;3.70;99.90;;;;;;5131376;27;20207;-67
2023/02/05 10:32:40;;;;;;;2.03;1.92;;;3.70;99.90;;;;;;5132433;27;20192;-68
2023/02/05 10:35:19;;;;;;;2.28;2.08;;;3.80;99.90;;;;;;5132205;27;20205;-68
2023/02/05 10:37:51;;;;;;;2.08;1.73;;;3.80;99.90;;;;;;5128111;27;20204;-67
2023/02/05 10:40:21;;;;;;;1.70;1.05;;;3.70;99.90;;;;;;5124374;27;20546;-68
2023/02/05 10:42:52;;;;;;;2.72;2.00;;;3.70;99.90;;;;;;5125715;27;20837;-69
2023/02/05 10:45:22;;;;;;;2.10;1.55;;;3.70;99.90;;;;;;5111319;27;20206;-69
2023/02/05 10:48:22;;;;;;;4.18;2.22;;;3.80;99.90;;;;;;5111236;27;20584;-68
2023/02/05 10:50:54;;;;;;;2.38;2.20;;;3.80;99.90;;;;;;5111465;27;20222;-69
2023/02/05 10:53:23;;;;;;;2.70;2.50;;;3.90;99.90;;;;;;5114099;27;20204;-68
2023/02/05 10:55:50;;;;;;;2.92;1.92;;;4.00;99.90;;;;;;5110954;27;20226;-69
2023/02/05 10:58:39;;;;;;;1.95;1.85;;;4.00;99.90;;;;;;5120326;27;20532;-69
2023/02/05 11:01:07;;;;;;;3.45;3.15;;;4.10;99.90;;;;;;5131286;27;20221;-68
2023/02/05 11:03:36;;;;;;;1.27;1.20;;;4.10;99.90;;;;;;5131814;27;20202;-69
2023/02/05 11:06:08;;;;;;;0.75;0.75;;;4.10;99.90;;;;;;5128491;27;20215;-68
2023/02/05 11:08:37;;;;;;;1.65;1.52;;;4.10;99.90;;;;;;5129176;27;20389;-69
2023/02/05 11:11:05;;;;;;;2.95;1.63;;;4.10;99.90;;;;;;5130127;27;20291;-68
2023/02/05 11:13:33;;;;;;;1.90;1.27;;;4.10;99.90;;;;;;5122229;27;20201;-68
2023/02/05 11:16:03;;;;;;;8.27;2.47;;;4.20;99.90;;;;;;5110652;27;20220;-68
2023/02/05 11:18:35;;;;;;;2.42;2.15;;;4.10;99.90;;;;;;5121530;27;20197;-68
2023/02/05 11:21:07;;;;;;;0.70;0.70;;;4.10;99.90;;;;;;5130702;27;20213;-69
2023/02/05 11:23:38;;;;;;;1.55;1.45;;;4.10;99.90;;;;;;5114669;27;20198;-68
2023/02/05 11:26:15;;;;;;;1.60;1.23;;;4.10;99.90;;;;;;5109418;27;20229;-69
2023/02/05 11:28:42;;;;;;;1.10;1.00;;;4.10;99.90;;;;;;5129585;27;20213;-67
2023/02/05 11:31:21;;;;;;;1.02;1.00;;;4.10;99.90;;;;;;5130120;27;20574;-68
2023/02/05 11:33:48;;;;;;;0.70;0.70;;;4.10;99.90;;;;;;5130380;27;20291;-69
2023/02/05 11:36:18;;;;;;;2.03;1.92;;;4.20;99.90;;;;;;5129777;27;20587;-69
2023/02/05 11:38:49;;;;;;;1.42;1.35;;;4.20;99.90;;;;;;5118923;27;20205;-68
2023/02/05 11:41:28;;;;;;;0.85;0.85;;;4.30;99.90;;;;;;5116944;27;20555;-68
2023/02/05 11:43:56;;;;;;;1.08;1.08;;;4.30;99.90;;;;;;5130416;27;20562;-69
2023/02/05 11:46:24;;;;;;;1.25;1.25;;;4.30;99.90;;;;;;5127271;27;20313;-69
2023/02/05 11:48:57;;;;;;;2.72;1.88;;;4.40;99.90;;;;;;5129119;27;20233;-68
2023/02/05 11:51:41;;;;;;;1.58;0.90;;;4.40;99.90;;;;;;5129160;27;20217;-70
2023/02/05 11:54:19;;;;;;;2.70;1.55;;;4.40;99.90;;;;;;5122571;27;20541;-69
2023/02/05 11:57:00;;;;;;;3.65;1.70;;;4.60;99.90;;;;;;5129227;27;20213;-69
2023/02/05 11:59:27;;;;;;;2.03;1.48;;;4.40;99.90;;;;;;5129227;27;20795;-69
2023/02/05 12:01:54;;;;;;;0.93;0.93;;;4.40;99.90;;;;;;5128468;27;20228;-68
2023/02/05 12:04:22;;;;;;;1.42;1.33;;;4.50;99.90;;;;;;5111616;27;20767;-69
2023/02/05 12:06:53;;;;;;;1.85;1.42;;;4.60;99.90;;;;;;5125634;27;20718;-69
2023/02/05 12:09:21;;;;;;;3.72;2.55;;;4.80;99.90;;;;;;5128408;27;20221;-69
2023/02/05 12:12:05;;;;;;;1.33;1.20;;;4.50;99.90;;;;;;5129476;27;20240;-68
2023/02/05 12:14:41;;;;;;;1.73;0.82;;;4.60;99.90;;;;;;5111689;27;20198;-68
2023/02/05 12:17:26;;;;;;;2.50;2.33;;;4.60;99.90;;;;;;5109022;28;20229;-68
2023/02/05 12:20:00;;;;;;;1.08;0.98;;;4.60;99.90;;;;;;5121529;27;20193;-68
2023/02/05 12:22:54;;;;;;;1.48;1.42;;;4.50;99.90;;;;;;5129066;27;20253;-69
2023/02/05 12:25:25;;;;;;;1.73;1.63;;;4.70;99.90;;;;;;5129052;27;20216;-69
2023/02/05 12:28:14;;;;;;;3.92;1.90;;;4.60;99.90;;;;;;5126754;27;20681;-69
2023/02/05 12:30:56;;;;;;;8.27;1.80;;;4.50;99.90;;;;;;5124775;27;20217;-68
2023/02/05 12:33:49;;;;;;;3.30;2.92;;;4.70;99.90;;;;;;5129325;27;20198;-68
2023/02/05 12:36:34;;;;;;;3.08;2.03;;;4.00;99.90;;;;;;5127982;27;20233;-68
2023/02/05 12:39:13;;;;;;;1.25;1.25;;;4.50;99.90;;;;;;5125861;27;20212;-68
2023/02/05 12:41:48;;;;;;;1.60;1.50;;;4.50;99.90;;;;;;5114169;27;20235;-68
2023/02/05 12:44:30;;;;;;;7.82;1.25;;;4.00;99.90;;;;;;5126912;27;20195;-68
2023/02/05 12:47:15;;;;;;;2.05;1.95;;;4.30;99.90;;;;;;5115330;27;20225;-68
2023/02/05 12:49:55;;;;;;;1.70;1.13;;;4.40;99.90;;;;;;5126643;27;20224;-67
2023/02/05 12:52:36;;;;;;;4.43;0.85;;;4.20;99.90;;;;;;5115799;27;20220;-68
2023/02/05 12:55:26;;;;;;;0.30;0.30;;;4.30;99.90;;;;;;5128700;27;20208;-68
2023/02/05 12:57:58;;;;;;;0.40;0.32;;;4.20;99.90;;;;;;5114920;27;20682;-68
2023/02/05 13:00:32;;;;;;;0.52;0.52;;;4.30;99.90;;;;;;5128484;27;20223;-68
2023/02/05 13:03:07;;;;;;;2.60;0.50;;;4.00;99.90;;;;;;5128973;27;20201;-68
2023/02/05 13:05:37;;;;;;;0.40;0.35;;;4.10;99.90;;;;;;5128548;27;20244;-68
2023/02/05 13:08:08;;;;;;;0.40;0.40;;;4.10;99.90;;;;;;5128675;27;20204;-68
2023/02/05 13:10:45;;;;;;;0.60;0.50;;;4.00;99.90;;;;;;5128865;27;20221;-69
2023/02/05 13:13:19;;;;;;;0.50;0.50;;;4.50;99.90;;;;;;5128778;27;20193;-68
2023/02/05 13:15:52;;;;;;;1.05;1.05;;;4.50;99.90;;;;;;5127453;27;20590;-68
2023/02/05 13:18:22;;;;;;;1.38;1.27;;;4.10;99.90;;;;;;5126797;27;20664;-68